createdAt,value
2023-05-12T00:00:47.263Z,0.00
2023-05-12T00:10:52.397Z,0.00
2023-05-12T00:20:58.247Z,0.00
2023-05-12T00:31:03.939Z,0.00
2023-05-12T00:41:09.590Z,0.00
2023-05-12T00:51:14.965Z,0.00
2023-05-12T01:01:20.225Z,0.00
2023-05-12T01:11:25.918Z,0.00
2023-05-12T01:21:31.444Z,0.00
2023-05-12T01:31:36.854Z,0.00
2023-05-12T01:41:42.437Z,0.00
2023-05-12T01:51:47.750Z,0.00
2023-05-12T02:01:53.159Z,0.00
2023-05-12T02:11:58.797Z,0.00
2023-05-12T02:22:04.672Z,0.00
2023-05-12T02:32:11.193Z,0.00
2023-05-12T02:42:16.896Z,0.00
2023-05-12T02:52:22.464Z,0.00
2023-05-12T03:02:28.109Z,0.00
2023-05-12T03:12:33.830Z,0.00
2023-05-12T03:22:39.473Z,0.00
2023-05-12T03:32:44.926Z,0.00
2023-05-12T03:42:50.762Z,0.00
2023-05-12T03:52:56.344Z,0.00
2023-05-12T04:03:01.736Z,0.00
2023-05-12T04:13:07.386Z,0.00
2023-05-12T04:23:12.798Z,0.00
2023-05-12T04:33:18.454Z,0.00
2023-05-12T04:53:33.059Z,0.00
2023-05-12T05:03:38.483Z,0.00
2023-05-12T05:13:44.240Z,4.00
2023-05-12T05:23:49.755Z,4.00
2023-05-12T05:33:55.605Z,16.00
2023-05-12T05:44:01.104Z,16.00
2023-05-12T05:54:06.622Z,52.00
2023-05-12T06:04:10.496Z,60.00
2023-05-12T06:14:15.269Z,32.00
2023-05-12T06:24:22.480Z,44.00
2023-05-12T06:34:28.521Z,72.00
2023-05-12T06:44:34.523Z,88.00
2023-05-12T06:54:40.275Z,92.00
2023-05-12T07:04:46.041Z,100.00
2023-05-12T07:14:51.701Z,96.00
2023-05-12T07:24:57.715Z,72.00
2023-05-12T07:35:03.556Z,80.00
2023-05-12T07:45:09.745Z,108.00
2023-05-12T07:55:15.349Z,116.00
2023-05-12T08:05:21.395Z,108.00
2023-05-12T08:15:27.246Z,132.00
2023-05-12T08:25:33.098Z,160.00
2023-05-12T08:35:38.758Z,172.00
2023-05-12T08:45:43.858Z,204.00
2023-05-12T08:57:08.308Z,276.00
2023-05-12T09:06:00.223Z,288.00
2023-05-12T09:16:06.385Z,292.00
2023-05-12T09:26:11.904Z,424.00
2023-05-12T09:36:17.592Z,192.00
2023-05-12T09:46:23.206Z,72.00
2023-05-12T09:56:28.841Z,112.00
2023-05-12T10:06:34.469Z,88.00
2023-05-12T10:16:40.375Z,52.00
2023-05-12T10:26:46.622Z,60.00
2023-05-12T10:36:52.187Z,152.00
2023-05-12T10:46:57.959Z,96.00
2023-05-12T10:57:03.774Z,40.00
2023-05-12T11:07:09.821Z,24.00
2023-05-12T11:17:16.380Z,20.00
2023-05-12T11:27:21.798Z,20.00
2023-05-12T11:37:27.648Z,36.00
2023-05-12T11:47:33.181Z,20.00
2023-05-12T11:57:38.763Z,24.00
2023-05-12T12:07:44.225Z,32.00
2023-05-12T12:17:49.810Z,56.00
2023-05-12T12:27:55.577Z,84.00
2023-05-12T12:38:01.404Z,68.00
2023-05-12T12:48:07.280Z,100.00
2023-05-12T12:58:12.986Z,92.00
2023-05-12T13:08:18.870Z,96.00
2023-05-12T13:18:24.675Z,76.00
2023-05-12T13:28:30.563Z,72.00
2023-05-12T13:38:36.146Z,92.00
2023-05-12T13:48:41.876Z,76.00
2023-05-12T13:58:47.384Z,72.00
2023-05-12T14:08:53.213Z,64.00
2023-05-12T14:18:58.668Z,64.00
2023-05-12T14:29:05.202Z,16.00
2023-05-12T14:39:12.029Z,32.00
2023-05-12T14:49:17.508Z,48.00
2023-05-12T14:59:23.100Z,48.00
2023-05-12T15:09:28.726Z,48.00
2023-05-12T15:19:34.394Z,48.00
2023-05-12T15:29:39.811Z,48.00
2023-05-12T15:39:45.222Z,40.00
2023-05-12T15:49:50.813Z,36.00
2023-05-12T15:59:56.309Z,32.00
2023-05-12T16:10:02.503Z,36.00
2023-05-12T16:20:08.277Z,32.00
2023-05-12T16:30:14.071Z,28.00
2023-05-12T16:40:19.686Z,28.00
2023-05-12T16:50:25.173Z,20.00
2023-05-12T17:00:30.709Z,12.00
2023-05-12T17:10:36.252Z,12.00
2023-05-12T17:20:41.821Z,16.00
2023-05-12T17:30:47.813Z,12.00
2023-05-12T17:40:53.415Z,16.00
2023-05-12T17:50:59.247Z,8.00
2023-05-12T18:01:04.623Z,12.00
2023-05-12T18:11:09.643Z,4.00
2023-05-12T18:21:15.466Z,0.00
2023-05-12T18:31:21.612Z,0.00
2023-05-12T18:41:28.050Z,0.00
2023-05-12T18:51:33.535Z,0.00
2023-05-12T19:01:39.037Z,0.00
2023-05-12T19:11:44.975Z,0.00
2023-05-12T19:21:50.570Z,0.00
2023-05-12T19:31:56.572Z,0.00
2023-05-12T19:42:02.258Z,0.00
2023-05-12T19:52:07.656Z,0.00
2023-05-12T20:02:13.270Z,0.00
2023-05-12T20:12:19.208Z,0.00
2023-05-12T20:22:24.390Z,0.00
2023-05-12T20:32:30.117Z,0.00
2023-05-12T20:42:35.665Z,0.00
2023-05-12T20:52:41.573Z,0.00
2023-05-12T21:02:47.060Z,0.00
2023-05-12T21:12:52.556Z,0.00
2023-05-12T21:22:58.180Z,0.00
2023-05-12T21:33:04.195Z,0.00
2023-05-12T21:43:10.302Z,0.00
2023-05-12T21:53:16.914Z,0.00
2023-05-12T22:03:22.568Z,0.00
2023-05-12T22:13:27.876Z,0.00
2023-05-12T22:23:33.688Z,0.00
2023-05-12T22:33:39.682Z,0.00
2023-05-12T22:43:45.619Z,0.00
2023-05-12T22:53:51.085Z,0.00
2023-05-12T23:03:56.566Z,0.00
2023-05-12T23:14:02.655Z,0.00
2023-05-12T23:24:08.429Z,0.00
2023-05-12T23:34:14.092Z,0.00
2023-05-12T23:44:20.154Z,0.00
2023-05-12T23:54:25.675Z,0.00
